sensor_id;sensor_type;location;lat;lon;timestamp;temperature;humidity
18103;DHT22;9178;51.120;6.192;2022-12-18T00:00:07;-5.50;99.90
18103;DHT22;9178;51.120;6.192;2022-12-18T00:02:36;-5.40;99.90
18103;DHT22;9178;51.120;6.192;2022-12-18T00:05:03;-5.40;99.90
18103;DHT22;9178;51.120;6.192;2022-12-18T00:07:30;-5.40;99.90
18103;DHT22;9178;51.120;6.192;2022-12-18T00:09:56;-5.40;99.90
18103;DHT22;9178;51.120;6.192;2022-12-18T00:12:23;-5.50;99.90
18103;DHT22;9178;51.120;6.192;2022-12-18T00:14:50;-5.50;99.90
18103;DHT22;9178;51.120;6.192;2022-12-18T00:17:16;-5.40;99.90
18103;DHT22;9178;51.120;6.192;2022-12-18T00:19:44;-5.50;99.90
18103;DHT22;9178;51.120;6.192;2022-12-18T00:22:11;-5.50;99.90
18103;DHT22;9178;51.120;6.192;2022-12-18T00:24:38;-5.50;99.90
18103;DHT22;9178;51.120;6.192;2022-12-18T00:27:05;-5.50;99.90
18103;DHT22;9178;51.120;6.192;2022-12-18T00:29:31;-5.50;99.90
18103;DHT22;9178;51.120;6.192;2022-12-18T00:31:58;-5.50;99.90
18103;DHT22;9178;51.120;6.192;2022-12-18T00:34:25;-5.50;99.90
18103;DHT22;9178;51.120;6.192;2022-12-18T00:36:53;-5.50;99.90
18103;DHT22;9178;51.120;6.192;2022-12-18T00:39:20;-5.50;99.90
18103;DHT22;9178;51.120;6.192;2022-12-18T00:41:46;-5.60;99.90
18103;DHT22;9178;51.120;6.192;2022-12-18T00:44:31;-5.60;99.90
18103;DHT22;9178;51.120;6.192;2022-12-18T00:46:57;-5.60;99.90
18103;DHT22;9178;51.120;6.192;2022-12-18T00:49:24;-5.60;99.90
18103;DHT22;9178;51.120;6.192;2022-12-18T00:51:54;-5.60;99.90
18103;DHT22;9178;51.120;6.192;2022-12-18T00:54:21;-5.60;99.90
18103;DHT22;9178;51.120;6.192;2022-12-18T00:56:48;-5.60;99.90
18103;DHT22;9178;51.120;6.192;2022-12-18T00:59:15;-5.60;99.90
18103;DHT22;9178;51.120;6.192;2022-12-18T01:01:42;-5.70;99.90
18103;DHT22;9178;51.120;6.192;2022-12-18T01:04:08;-5.70;99.90
18103;DHT22;9178;51.120;6.192;2022-12-18T01:06:35;-5.70;99.90
18103;DHT22;9178;51.120;6.192;2022-12-18T01:09:03;-5.70;99.90
18103;DHT22;9178;51.120;6.192;2022-12-18T01:11:30;-5.70;99.90
18103;DHT22;9178;51.120;6.192;2022-12-18T01:13:57;-5.70;99.90
18103;DHT22;9178;51.120;6.192;2022-12-18T01:16:24;-5.70;99.90
18103;DHT22;9178;51.120;6.192;2022-12-18T01:18:52;-5.70;99.90
18103;DHT22;9178;51.120;6.192;2022-12-18T01:21:20;-5.70;99.90
18103;DHT22;9178;51.120;6.192;2022-12-18T01:23:51;-5.70;99.90
18103;DHT22;9178;51.120;6.192;2022-12-18T01:26:19;-5.70;99.90
18103;DHT22;9178;51.120;6.192;2022-12-18T01:28:46;-5.70;99.90
18103;DHT22;9178;51.120;6.192;2022-12-18T01:31:16;-5.70;99.90
18103;DHT22;9178;51.120;6.192;2022-12-18T01:33:43;-5.70;99.90
18103;DHT22;9178;51.120;6.192;2022-12-18T01:36:15;-5.70;99.90
18103;DHT22;9178;51.120;6.192;2022-12-18T01:38:42;-5.70;99.90
18103;DHT22;9178;51.120;6.192;2022-12-18T01:41:09;-5.80;99.90
18103;DHT22;9178;51.120;6.192;2022-12-18T01:43:50;-5.80;99.90
18103;DHT22;9178;51.120;6.192;2022-12-18T01:46:19;-5.80;99.90
18103;DHT22;9178;51.120;6.192;2022-12-18T01:48:50;-5.80;99.90
18103;DHT22;9178;51.120;6.192;2022-12-18T01:51:17;-5.70;99.90
18103;DHT22;9178;51.120;6.192;2022-12-18T01:53:46;-5.70;99.90
18103;DHT22;9178;51.120;6.192;2022-12-18T01:56:15;-5.70;99.90
18103;DHT22;9178;51.120;6.192;2022-12-18T01:58:50;-5.80;99.90
18103;DHT22;9178;51.120;6.192;2022-12-18T02:01:18;-5.80;99.90
18103;DHT22;9178;51.120;6.192;2022-12-18T02:03:46;-5.80;99.90
18103;DHT22;9178;51.120;6.192;2022-12-18T02:06:16;-5.80;99.90
18103;DHT22;9178;51.120;6.192;2022-12-18T02:08:55;-5.80;99.90
18103;DHT22;9178;51.120;6.192;2022-12-18T02:11:39;-5.80;99.90
18103;DHT22;9178;51.120;6.192;2022-12-18T02:14:16;-5.80;99.90
18103;DHT22;9178;51.120;6.192;2022-12-18T02:16:49;-5.80;99.90
18103;DHT22;9178;51.120;6.192;2022-12-18T02:19:29;-5.80;99.90
18103;DHT22;9178;51.120;6.192;2022-12-18T02:22:10;-5.80;99.90
18103;DHT22;9178;51.120;6.192;2022-12-18T02:24:44;-5.70;99.90
18103;DHT22;9178;51.120;6.192;2022-12-18T02:27:15;-5.70;99.90
18103;DHT22;9178;51.120;6.192;2022-12-18T02:29:46;-5.70;99.90
18103;DHT22;9178;51.120;6.192;2022-12-18T02:32:18;-5.80;99.90
18103;DHT22;9178;51.120;6.192;2022-12-18T02:34:46;-5.80;99.90
18103;DHT22;9178;51.120;6.192;2022-12-18T02:37:16;-5.80;99.90
18103;DHT22;9178;51.120;6.192;2022-12-18T02:39:46;-5.70;99.90
18103;DHT22;9178;51.120;6.192;2022-12-18T02:42:16;-5.70;99.90
18103;DHT22;9178;51.120;6.192;2022-12-18T02:44:44;-5.70;99.90
18103;DHT22;9178;51.120;6.192;2022-12-18T02:47:12;-5.70;99.90
18103;DHT22;9178;51.120;6.192;2022-12-18T02:49:49;-5.70;99.90
18103;DHT22;9178;51.120;6.192;2022-12-18T02:52:25;-5.80;99.90
18103;DHT22;9178;51.120;6.192;2022-12-18T02:55:00;-5.80;99.90
18103;DHT22;9178;51.120;6.192;2022-12-18T02:57:34;-5.80;99.90
18103;DHT22;9178;51.120;6.192;2022-12-18T03:00:08;-5.70;99.90
18103;DHT22;9178;51.120;6.192;2022-12-18T03:02:41;-5.70;99.90
18103;DHT22;9178;51.120;6.192;2022-12-18T03:05:12;-5.60;99.90
18103;DHT22;9178;51.120;6.192;2022-12-18T03:07:43;-5.60;99.90
18103;DHT22;9178;51.120;6.192;2022-12-18T03:10:14;-5.60;99.90
18103;DHT22;9178;51.120;6.192;2022-12-18T03:12:48;-5.60;99.90
18103;DHT22;9178;51.120;6.192;2022-12-18T03:15:19;-5.60;99.90
18103;DHT22;9178;51.120;6.192;2022-12-18T03:17:51;-5.60;99.90
18103;DHT22;9178;51.120;6.192;2022-12-18T03:20:20;-5.70;99.90
18103;DHT22;9178;51.120;6.192;2022-12-18T03:22:52;-5.60;99.90
18103;DHT22;9178;51.120;6.192;2022-12-18T03:25:20;-5.70;99.90
18103;DHT22;9178;51.120;6.192;2022-12-18T03:27:52;-5.60;99.90
18103;DHT22;9178;51.120;6.192;2022-12-18T03:30:21;-5.60;99.90
18103;DHT22;9178;51.120;6.192;2022-12-18T03:32:50;-5.60;99.90
18103;DHT22;9178;51.120;6.192;2022-12-18T03:35:22;-5.60;99.90
18103;DHT22;9178;51.120;6.192;2022-12-18T03:37:51;-5.60;99.90
18103;DHT22;9178;51.120;6.192;2022-12-18T03:40:19;-5.60;99.90
18103;DHT22;9178;51.120;6.192;2022-12-18T03:42:49;-5.60;99.90
18103;DHT22;9178;51.120;6.192;2022-12-18T03:45:22;-5.60;99.90
18103;DHT22;9178;51.120;6.192;2022-12-18T03:47:59;-5.50;99.90
18103;DHT22;9178;51.120;6.192;2022-12-18T03:50:34;-5.50;99.90
18103;DHT22;9178;51.120;6.192;2022-12-18T03:53:12;-5.50;99.90
18103;DHT22;9178;51.120;6.192;2022-12-18T03:55:41;-5.50;99.90
18103;DHT22;9178;51.120;6.192;2022-12-18T03:58:12;-5.50;99.90
18103;DHT22;9178;51.120;6.192;2022-12-18T04:00:41;-5.50;99.90
18103;DHT22;9178;51.120;6.192;2022-12-18T04:03:10;-5.50;99.90
18103;DHT22;9178;51.120;6.192;2022-12-18T04:05:37;-5.50;99.90
18103;DHT22;9178;51.120;6.192;2022-12-18T04:08:05;-5.50;99.90
18103;DHT22;9178;51.120;6.192;2022-12-18T04:10:32;-5.50;99.90
18103;DHT22;9178;51.120;6.192;2022-12-18T04:12:58;-5.50;99.90
18103;DHT22;9178;51.120;6.192;2022-12-18T04:15:27;-5.50;99.90
18103;DHT22;9178;51.120;6.192;2022-12-18T04:17:53;-5.40;99.90
18103;DHT22;9178;51.120;6.192;2022-12-18T04:20:20;-5.40;99.90
18103;DHT22;9178;51.120;6.192;2022-12-18T04:22:47;-5.40;99.90
18103;DHT22;9178;51.120;6.192;2022-12-18T04:25:14;-5.40;99.90
18103;DHT22;9178;51.120;6.192;2022-12-18T04:27:41;-5.40;99.90
18103;DHT22;9178;51.120;6.192;2022-12-18T04:30:08;-5.40;99.90
18103;DHT22;9178;51.120;6.192;2022-12-18T04:32:36;-5.50;99.90
18103;DHT22;9178;51.120;6.192;2022-12-18T04:35:04;-5.40;99.90
18103;DHT22;9178;51.120;6.192;2022-12-18T04:37:33;-5.40;99.90
18103;DHT22;9178;51.120;6.192;2022-12-18T04:40:00;-5.40;99.90
18103;DHT22;9178;51.120;6.192;2022-12-18T04:42:27;-5.30;99.90
18103;DHT22;9178;51.120;6.192;2022-12-18T04:44:54;-5.30;99.90
18103;DHT22;9178;51.120;6.192;2022-12-18T04:47:20;-5.30;99.90
18103;DHT22;9178;51.120;6.192;2022-12-18T04:49:48;-5.20;99.90
18103;DHT22;9178;51.120;6.192;2022-12-18T04:52:15;-5.20;99.90
18103;DHT22;9178;51.120;6.192;2022-12-18T04:54:42;-5.20;99.90
18103;DHT22;9178;51.120;6.192;2022-12-18T04:57:09;-5.20;99.90
18103;DHT22;9178;51.120;6.192;2022-12-18T04:59:35;-5.20;99.90
18103;DHT22;9178;51.120;6.192;2022-12-18T05:02:02;-5.20;99.90
18103;DHT22;9178;51.120;6.192;2022-12-18T05:04:29;-5.20;99.90
18103;DHT22;9178;51.120;6.192;2022-12-18T05:06:57;-5.20;99.90
18103;DHT22;9178;51.120;6.192;2022-12-18T05:09:24;-5.20;99.90
18103;DHT22;9178;51.120;6.192;2022-12-18T05:11:50;-5.20;99.90
18103;DHT22;9178;51.120;6.192;2022-12-18T05:14:17;-5.20;99.90
18103;DHT22;9178;51.120;6.192;2022-12-18T05:16:44;-5.20;99.90
18103;DHT22;9178;51.120;6.192;2022-12-18T05:19:11;-5.20;99.90
18103;DHT22;9178;51.120;6.192;2022-12-18T05:21:38;-5.20;99.90
18103;DHT22;9178;51.120;6.192;2022-12-18T05:24:06;-5.20;99.90
18103;DHT22;9178;51.120;6.192;2022-12-18T05:26:33;-5.10;99.90
18103;DHT22;9178;51.120;6.192;2022-12-18T05:29:00;-5.20;99.90
18103;DHT22;9178;51.120;6.192;2022-12-18T05:31:26;-5.20;99.90
18103;DHT22;9178;51.120;6.192;2022-12-18T05:33:53;-5.20;99.90
18103;DHT22;9178;51.120;6.192;2022-12-18T05:36:20;-5.20;99.90
18103;DHT22;9178;51.120;6.192;2022-12-18T05:38:47;-5.20;99.90
18103;DHT22;9178;51.120;6.192;2022-12-18T05:41:15;-5.20;99.90
18103;DHT22;9178;51.120;6.192;2022-12-18T05:43:43;-5.20;99.90
18103;DHT22;9178;51.120;6.192;2022-12-18T05:46:12;-5.20;99.90
18103;DHT22;9178;51.120;6.192;2022-12-18T05:48:39;-5.20;99.90
18103;DHT22;9178;51.120;6.192;2022-12-18T05:51:07;-5.20;99.90
18103;DHT22;9178;51.120;6.192;2022-12-18T05:53:35;-5.20;99.90
18103;DHT22;9178;51.120;6.192;2022-12-18T05:56:06;-5.20;99.90
18103;DHT22;9178;51.120;6.192;2022-12-18T05:58:35;-5.20;99.90
18103;DHT22;9178;51.120;6.192;2022-12-18T06:01:07;-5.20;99.90
18103;DHT22;9178;51.120;6.192;2022-12-18T06:03:34;-5.20;99.90
18103;DHT22;9178;51.120;6.192;2022-12-18T06:06:00;-5.20;99.90
18103;DHT22;9178;51.120;6.192;2022-12-18T06:08:27;-5.10;99.90
18103;DHT22;9178;51.120;6.192;2022-12-18T06:10:54;-5.20;99.90
18103;DHT22;9178;51.120;6.192;2022-12-18T06:13:21;-5.20;99.90
18103;DHT22;9178;51.120;6.192;2022-12-18T06:15:49;-5.10;99.90
18103;DHT22;9178;51.120;6.192;2022-12-18T06:18:16;-5.10;99.90
18103;DHT22;9178;51.120;6.192;2022-12-18T06:20:42;-5.20;99.90
18103;DHT22;9178;51.120;6.192;2022-12-18T06:23:09;-5.20;99.90
18103;DHT22;9178;51.120;6.192;2022-12-18T06:25:38;-5.20;99.90
18103;DHT22;9178;51.120;6.192;2022-12-18T06:28:04;-5.20;99.90
18103;DHT22;9178;51.120;6.192;2022-12-18T06:30:31;-5.20;99.90
18103;DHT22;9178;51.120;6.192;2022-12-18T06:32:59;-5.20;99.90
18103;DHT22;9178;51.120;6.192;2022-12-18T06:35:26;-5.30;99.90
18103;DHT22;9178;51.120;6.192;2022-12-18T06:37:53;-5.30;99.90
18103;DHT22;9178;51.120;6.192;2022-12-18T06:40:20;-5.30;99.90
18103;DHT22;9178;51.120;6.192;2022-12-18T06:42:47;-5.30;99.90
18103;DHT22;9178;51.120;6.192;2022-12-18T06:45:13;-5.30;99.90
18103;DHT22;9178;51.120;6.192;2022-12-18T06:47:41;-5.30;99.90
18103;DHT22;9178;51.120;6.192;2022-12-18T06:50:10;-5.30;99.90
18103;DHT22;9178;51.120;6.192;2022-12-18T06:52:37;-5.30;99.90
18103;DHT22;9178;51.120;6.192;2022-12-18T06:55:05;-5.30;99.90
18103;DHT22;9178;51.120;6.192;2022-12-18T06:57:32;-5.30;99.90
18103;DHT22;9178;51.120;6.192;2022-12-18T06:59:59;-5.20;99.90
18103;DHT22;9178;51.120;6.192;2022-12-18T07:02:25;-5.20;99.90
18103;DHT22;9178;51.120;6.192;2022-12-18T07:04:52;-5.20;99.90
18103;DHT22;9178;51.120;6.192;2022-12-18T07:07:20;-5.20;99.90
18103;DHT22;9178;51.120;6.192;2022-12-18T07:09:48;-5.20;99.90
18103;DHT22;9178;51.120;6.192;2022-12-18T07:12:15;-5.20;99.90
18103;DHT22;9178;51.120;6.192;2022-12-18T07:14:42;-5.30;99.90
18103;DHT22;9178;51.120;6.192;2022-12-18T07:17:09;-5.20;99.90
18103;DHT22;9178;51.120;6.192;2022-12-18T07:19:36;-5.20;99.90
18103;DHT22;9178;51.120;6.192;2022-12-18T07:22:02;-5.20;99.90
18103;DHT22;9178;51.120;6.192;2022-12-18T07:24:32;-5.20;99.90
18103;DHT22;9178;51.120;6.192;2022-12-18T07:26:59;-5.10;99.90
18103;DHT22;9178;51.120;6.192;2022-12-18T07:29:25;-5.10;99.90
18103;DHT22;9178;51.120;6.192;2022-12-18T07:31:52;-5.10;99.90
18103;DHT22;9178;51.120;6.192;2022-12-18T07:34:19;-5.10;99.90
18103;DHT22;9178;51.120;6.192;2022-12-18T07:36:46;-5.10;99.90
18103;DHT22;9178;51.120;6.192;2022-12-18T07:39:12;-5.10;99.90
18103;DHT22;9178;51.120;6.192;2022-12-18T07:41:40;-5.10;99.90
18103;DHT22;9178;51.120;6.192;2022-12-18T07:44:30;-5.10;99.90
18103;DHT22;9178;51.120;6.192;2022-12-18T07:46:57;-5.10;99.90
18103;DHT22;9178;51.120;6.192;2022-12-18T07:49:23;-5.10;99.90
18103;DHT22;9178;51.120;6.192;2022-12-18T07:51:50;-5.10;99.90
18103;DHT22;9178;51.120;6.192;2022-12-18T07:54:17;-5.10;99.90
18103;DHT22;9178;51.120;6.192;2022-12-18T07:56:51;-5.10;99.90
18103;DHT22;9178;51.120;6.192;2022-12-18T07:59:18;-5.10;99.90
18103;DHT22;9178;51.120;6.192;2022-12-18T08:01:45;-5.10;99.90
18103;DHT22;9178;51.120;6.192;2022-12-18T08:04:11;-5.00;99.90
18103;DHT22;9178;51.120;6.192;2022-12-18T08:06:38;-5.00;99.90
18103;DHT22;9178;51.120;6.192;2022-12-18T08:09:05;-5.00;99.90
18103;DHT22;9178;51.120;6.192;2022-12-18T08:11:33;-4.90;99.90
18103;DHT22;9178;51.120;6.192;2022-12-18T08:14:01;-4.90;99.90
18103;DHT22;9178;51.120;6.192;2022-12-18T08:16:28;-4.90;99.90
18103;DHT22;9178;51.120;6.192;2022-12-18T08:18:55;-4.80;99.90
18103;DHT22;9178;51.120;6.192;2022-12-18T08:21:24;-4.80;99.90
18103;DHT22;9178;51.120;6.192;2022-12-18T08:23:53;-4.70;99.90
18103;DHT22;9178;51.120;6.192;2022-12-18T08:26:21;-4.60;99.90
18103;DHT22;9178;51.120;6.192;2022-12-18T08:28:49;-4.60;99.90
18103;DHT22;9178;51.120;6.192;2022-12-18T08:31:17;-4.60;99.90
18103;DHT22;9178;51.120;6.192;2022-12-18T08:33:44;-4.50;99.90
18103;DHT22;9178;51.120;6.192;2022-12-18T08:36:11;-4.50;99.90
18103;DHT22;9178;51.120;6.192;2022-12-18T08:38:37;-4.50;99.90
18103;DHT22;9178;51.120;6.192;2022-12-18T08:41:06;-4.30;99.90
18103;DHT22;9178;51.120;6.192;2022-12-18T08:43:33;-4.20;99.90
18103;DHT22;9178;51.120;6.192;2022-12-18T08:46:20;-4.00;99.90
18103;DHT22;9178;51.120;6.192;2022-12-18T08:48:49;-4.00;99.90
18103;DHT22;9178;51.120;6.192;2022-12-18T08:51:17;-4.00;99.90
18103;DHT22;9178;51.120;6.192;2022-12-18T08:53:44;-3.90;99.90
18103;DHT22;9178;51.120;6.192;2022-12-18T08:56:11;-3.90;99.90
18103;DHT22;9178;51.120;6.192;2022-12-18T08:58:38;-3.90;99.90
18103;DHT22;9178;51.120;6.192;2022-12-18T09:01:07;-3.80;99.90
18103;DHT22;9178;51.120;6.192;2022-12-18T09:03:37;-3.80;99.90
18103;DHT22;9178;51.120;6.192;2022-12-18T09:06:05;-3.80;99.90
18103;DHT22;9178;51.120;6.192;2022-12-18T09:08:32;-3.70;99.90
18103;DHT22;9178;51.120;6.192;2022-12-18T09:10:59;-3.60;99.90
18103;DHT22;9178;51.120;6.192;2022-12-18T09:13:26;-3.50;99.90
18103;DHT22;9178;51.120;6.192;2022-12-18T09:15:54;-3.50;99.90
18103;DHT22;9178;51.120;6.192;2022-12-18T09:18:22;-3.40;99.90
18103;DHT22;9178;51.120;6.192;2022-12-18T09:20:50;-3.40;99.90
18103;DHT22;9178;51.120;6.192;2022-12-18T09:23:18;-3.30;99.90
18103;DHT22;9178;51.120;6.192;2022-12-18T09:25:45;-3.20;99.90
18103;DHT22;9178;51.120;6.192;2022-12-18T09:28:14;-3.20;99.90
18103;DHT22;9178;51.120;6.192;2022-12-18T09:30:42;-3.10;99.90
18103;DHT22;9178;51.120;6.192;2022-12-18T09:33:10;-3.10;99.90
18103;DHT22;9178;51.120;6.192;2022-12-18T09:35:37;-3.00;99.90
18103;DHT22;9178;51.120;6.192;2022-12-18T09:38:05;-3.00;99.90
18103;DHT22;9178;51.120;6.192;2022-12-18T09:40:34;-2.90;99.90
18103;DHT22;9178;51.120;6.192;2022-12-18T09:43:04;-2.90;99.90
18103;DHT22;9178;51.120;6.192;2022-12-18T09:45:35;-2.80;99.90
18103;DHT22;9178;51.120;6.192;2022-12-18T09:48:05;-2.80;99.90
18103;DHT22;9178;51.120;6.192;2022-12-18T09:50:35;-2.70;99.90
18103;DHT22;9178;51.120;6.192;2022-12-18T09:53:07;-2.70;99.90
18103;DHT22;9178;51.120;6.192;2022-12-18T09:55:40;-2.60;99.90
18103;DHT22;9178;51.120;6.192;2022-12-18T09:58:14;-2.50;99.90
18103;DHT22;9178;51.120;6.192;2022-12-18T10:00:41;-2.50;99.90
18103;DHT22;9178;51.120;6.192;2022-12-18T10:03:10;-2.40;99.90
18103;DHT22;9178;51.120;6.192;2022-12-18T10:05:41;-2.40;99.90
18103;DHT22;9178;51.120;6.192;2022-12-18T10:08:16;-2.30;99.90
18103;DHT22;9178;51.120;6.192;2022-12-18T10:10:47;-2.20;99.90
18103;DHT22;9178;51.120;6.192;2022-12-18T10:13:21;-2.20;99.90
18103;DHT22;9178;51.120;6.192;2022-12-18T10:15:58;-2.10;99.90
18103;DHT22;9178;51.120;6.192;2022-12-18T10:18:38;-2.00;99.90
18103;DHT22;9178;51.120;6.192;2022-12-18T10:21:11;-2.00;99.90
18103;DHT22;9178;51.120;6.192;2022-12-18T10:23:45;-1.90;99.90
18103;DHT22;9178;51.120;6.192;2022-12-18T10:26:14;-1.90;99.90
18103;DHT22;9178;51.120;6.192;2022-12-18T10:28:41;-1.80;99.90
18103;DHT22;9178;51.120;6.192;2022-12-18T10:31:14;-1.80;99.90
18103;DHT22;9178;51.120;6.192;2022-12-18T10:33:42;-1.70;99.90
18103;DHT22;9178;51.120;6.192;2022-12-18T10:36:09;-1.70;99.90
18103;DHT22;9178;51.120;6.192;2022-12-18T10:38:36;-1.60;99.90
18103;DHT22;9178;51.120;6.192;2022-12-18T10:41:08;-1.60;99.90
18103;DHT22;9178;51.120;6.192;2022-12-18T10:44:11;-1.50;99.90
18103;DHT22;9178;51.120;6.192;2022-12-18T10:46:38;-1.50;99.90
18103;DHT22;9178;51.120;6.192;2022-12-18T10:49:05;-1.50;99.90
18103;DHT22;9178;51.120;6.192;2022-12-18T10:51:34;-1.40;99.90
18103;DHT22;9178;51.120;6.192;2022-12-18T10:54:03;-1.30;99.90
18103;DHT22;9178;51.120;6.192;2022-12-18T10:56:34;-1.30;99.90
18103;DHT22;9178;51.120;6.192;2022-12-18T10:59:02;-1.30;99.90
18103;DHT22;9178;51.120;6.192;2022-12-18T11:01:45;-1.20;99.90
18103;DHT22;9178;51.120;6.192;2022-12-18T11:04:17;-1.20;99.90
18103;DHT22;9178;51.120;6.192;2022-12-18T11:06:57;-1.20;99.90
18103;DHT22;9178;51.120;6.192;2022-12-18T11:09:25;-1.20;99.90
18103;DHT22;9178;51.120;6.192;2022-12-18T11:11:56;-1.10;99.90
18103;DHT22;9178;51.120;6.192;2022-12-18T11:14:25;-1.10;99.90
18103;DHT22;9178;51.120;6.192;2022-12-18T11:16:53;-1.10;99.90
18103;DHT22;9178;51.120;6.192;2022-12-18T11:19:28;-1.00;99.90
18103;DHT22;9178;51.120;6.192;2022-12-18T11:21:56;-1.00;99.90
18103;DHT22;9178;51.120;6.192;2022-12-18T11:24:28;-1.00;99.90
18103;DHT22;9178;51.120;6.192;2022-12-18T11:27:01;-1.00;99.90
18103;DHT22;9178;51.120;6.192;2022-12-18T11:29:32;-1.00;99.90
18103;DHT22;9178;51.120;6.192;2022-12-18T11:32:29;-0.90;99.90
18103;DHT22;9178;51.120;6.192;2022-12-18T11:35:04;-0.90;99.90
18103;DHT22;9178;51.120;6.192;2022-12-18T11:37:36;-0.90;99.90
18103;DHT22;9178;51.120;6.192;2022-12-18T11:40:09;-0.90;99.90
18103;DHT22;9178;51.120;6.192;2022-12-18T11:42:45;-0.80;99.90
18103;DHT22;9178;51.120;6.192;2022-12-18T11:45:25;-0.80;99.90
18103;DHT22;9178;51.120;6.192;2022-12-18T11:47:57;-0.80;99.90
18103;DHT22;9178;51.120;6.192;2022-12-18T11:50:29;-0.80;99.90
18103;DHT22;9178;51.120;6.192;2022-12-18T11:52:58;-0.70;99.90
18103;DHT22;9178;51.120;6.192;2022-12-18T11:55:33;-0.70;99.90
18103;DHT22;9178;51.120;6.192;2022-12-18T11:58:10;-0.70;99.90
18103;DHT22;9178;51.120;6.192;2022-12-18T12:00:44;-0.60;99.90
18103;DHT22;9178;51.120;6.192;2022-12-18T12:03:27;-0.60;99.90
18103;DHT22;9178;51.120;6.192;2022-12-18T12:06:08;-0.50;99.90
18103;DHT22;9178;51.120;6.192;2022-12-18T12:08:48;-0.50;99.90
18103;DHT22;9178;51.120;6.192;2022-12-18T12:11:25;-0.50;99.90
18103;DHT22;9178;51.120;6.192;2022-12-18T12:14:06;-0.50;99.90
18103;DHT22;9178;51.120;6.192;2022-12-18T12:16:45;-0.40;99.90
18103;DHT22;9178;51.120;6.192;2022-12-18T12:19:27;-0.40;99.90
18103;DHT22;9178;51.120;6.192;2022-12-18T12:22:06;-0.40;99.90
18103;DHT22;9178;51.120;6.192;2022-12-18T12:24:43;-0.40;99.90
18103;DHT22;9178;51.120;6.192;2022-12-18T12:27:19;-0.40;99.90
18103;DHT22;9178;51.120;6.192;2022-12-18T12:30:00;-0.40;99.90
18103;DHT22;9178;51.120;6.192;2022-12-18T12:32:41;-0.30;99.90
18103;DHT22;9178;51.120;6.192;2022-12-18T12:35:21;-0.30;99.90
18103;DHT22;9178;51.120;6.192;2022-12-18T12:37:56;-0.30;99.90
18103;DHT22;9178;51.120;6.192;2022-12-18T12:40:27;-0.30;99.90
18103;DHT22;9178;51.120;6.192;2022-12-18T12:42:58;-0.30;99.90
18103;DHT22;9178;51.120;6.192;2022-12-18T12:45:47;-0.30;99.90
18103;DHT22;9178;51.120;6.192;2022-12-18T12:48:28;-0.30;99.90
18103;DHT22;9178;51.120;6.192;2022-12-18T12:50:59;-0.30;99.90
18103;DHT22;9178;51.120;6.192;2022-12-18T12:53:34;-0.30;99.90
18103;DHT22;9178;51.120;6.192;2022-12-18T12:56:03;-0.30;99.90
18103;DHT22;9178;51.120;6.192;2022-12-18T12:58:36;-0.30;99.90
18103;DHT22;9178;51.120;6.192;2022-12-18T13:01:14;-0.30;99.90
18103;DHT22;9178;51.120;6.192;2022-12-18T13:03:50;-0.30;99.90
18103;DHT22;9178;51.120;6.192;2022-12-18T13:06:26;-0.30;99.90
18103;DHT22;9178;51.120;6.192;2022-12-18T13:08:57;-0.30;99.90
18103;DHT22;9178;51.120;6.192;2022-12-18T13:11:35;-0.30;99.90
18103;DHT22;9178;51.120;6.192;2022-12-18T13:14:23;-0.30;99.90
18103;DHT22;9178;51.120;6.192;2022-12-18T13:16:51;-0.30;99.90
18103;DHT22;9178;51.120;6.192;2022-12-18T13:19:22;-0.20;99.90
18103;DHT22;9178;51.120;6.192;2022-12-18T13:21:53;-0.30;99.90
18103;DHT22;9178;51.120;6.192;2022-12-18T13:24:24;-0.30;99.90
18103;DHT22;9178;51.120;6.192;2022-12-18T13:26:52;-0.30;99.90
18103;DHT22;9178;51.120;6.192;2022-12-18T13:29:43;-0.30;99.90
18103;DHT22;9178;51.120;6.192;2022-12-18T13:32:21;-0.30;99.90
18103;DHT22;9178;51.120;6.192;2022-12-18T13:34:49;-0.30;99.90
18103;DHT22;9178;51.120;6.192;2022-12-18T13:37:42;-0.30;99.90
18103;DHT22;9178;51.120;6.192;2022-12-18T13:43:34;-0.30;99.90
18103;DHT22;9178;51.120;6.192;2022-12-18T13:46:05;-0.30;99.90
18103;DHT22;9178;51.120;6.192;2022-12-18T13:48:37;-0.30;99.90
18103;DHT22;9178;51.120;6.192;2022-12-18T13:51:06;-0.30;99.90
18103;DHT22;9178;51.120;6.192;2022-12-18T13:53:37;-0.30;99.90
18103;DHT22;9178;51.120;6.192;2022-12-18T13:56:05;-0.30;99.90
18103;DHT22;9178;51.120;6.192;2022-12-18T13:58:32;-0.30;99.90
18103;DHT22;9178;51.120;6.192;2022-12-18T14:00:59;-0.40;99.90
18103;DHT22;9178;51.120;6.192;2022-12-18T14:03:29;-0.30;99.90
18103;DHT22;9178;51.120;6.192;2022-12-18T14:06:01;-0.40;99.90
18103;DHT22;9178;51.120;6.192;2022-12-18T14:08:34;-0.40;99.90
18103;DHT22;9178;51.120;6.192;2022-12-18T14:11:03;-0.40;99.90
18103;DHT22;9178;51.120;6.192;2022-12-18T14:13:33;-0.40;99.90
18103;DHT22;9178;51.120;6.192;2022-12-18T14:16:03;-0.50;99.90
18103;DHT22;9178;51.120;6.192;2022-12-18T14:18:37;-0.60;99.90
18103;DHT22;9178;51.120;6.192;2022-12-18T14:21:06;-0.60;99.90
18103;DHT22;9178;51.120;6.192;2022-12-18T14:23:42;-0.50;99.90
18103;DHT22;9178;51.120;6.192;2022-12-18T14:26:21;-0.50;99.90
18103;DHT22;9178;51.120;6.192;2022-12-18T14:28:48;-0.60;99.90
18103;DHT22;9178;51.120;6.192;2022-12-18T14:31:18;-0.60;99.90
18103;DHT22;9178;51.120;6.192;2022-12-18T14:33:46;-0.60;99.90
18103;DHT22;9178;51.120;6.192;2022-12-18T14:36:16;-0.60;99.90
18103;DHT22;9178;51.120;6.192;2022-12-18T14:38:48;-0.60;99.90
18103;DHT22;9178;51.120;6.192;2022-12-18T14:41:16;-0.60;99.90
18103;DHT22;9178;51.120;6.192;2022-12-18T14:43:45;-0.60;99.90
18103;DHT22;9178;51.120;6.192;2022-12-18T14:46:28;-0.60;99.90
18103;DHT22;9178;51.120;6.192;2022-12-18T14:48:57;-0.60;99.90
18103;DHT22;9178;51.120;6.192;2022-12-18T14:51:26;-0.60;99.90
18103;DHT22;9178;51.120;6.192;2022-12-18T14:53:55;-0.60;99.90
18103;DHT22;9178;51.120;6.192;2022-12-18T14:56:23;-0.60;99.90
18103;DHT22;9178;51.120;6.192;2022-12-18T14:58:52;-0.60;99.90
18103;DHT22;9178;51.120;6.192;2022-12-18T15:01:24;-0.60;99.90
18103;DHT22;9178;51.120;6.192;2022-12-18T15:03:52;-0.60;99.90
18103;DHT22;9178;51.120;6.192;2022-12-18T15:06:30;-0.60;99.90
18103;DHT22;9178;51.120;6.192;2022-12-18T15:08:59;-0.60;99.90
18103;DHT22;9178;51.120;6.192;2022-12-18T15:11:33;-0.60;99.90
18103;DHT22;9178;51.120;6.192;2022-12-18T15:14:22;-0.70;99.90
18103;DHT22;9178;51.120;6.192;2022-12-18T15:16:53;-0.70;99.90
18103;DHT22;9178;51.120;6.192;2022-12-18T15:19:21;-0.70;99.90
18103;DHT22;9178;51.120;6.192;2022-12-18T15:21:50;-0.70;99.90
18103;DHT22;9178;51.120;6.192;2022-12-18T15:24:18;-0.80;99.90
18103;DHT22;9178;51.120;6.192;2022-12-18T15:26:46;-0.80;99.90
18103;DHT22;9178;51.120;6.192;2022-12-18T15:29:19;-0.80;99.90
18103;DHT22;9178;51.120;6.192;2022-12-18T15:31:59;-0.90;99.90
18103;DHT22;9178;51.120;6.192;2022-12-18T15:34:26;-0.90;99.90
18103;DHT22;9178;51.120;6.192;2022-12-18T15:36:55;-0.90;99.90
18103;DHT22;9178;51.120;6.192;2022-12-18T15:39:22;-0.90;99.90
18103;DHT22;9178;51.120;6.192;2022-12-18T15:41:48;-0.90;99.90
18103;DHT22;9178;51.120;6.192;2022-12-18T15:44:33;-0.90;99.90
18103;DHT22;9178;51.120;6.192;2022-12-18T15:47:00;-1.00;99.90
18103;DHT22;9178;51.120;6.192;2022-12-18T15:49:27;-1.00;99.90
18103;DHT22;9178;51.120;6.192;2022-12-18T15:51:57;-1.00;99.90
18103;DHT22;9178;51.120;6.192;2022-12-18T15:54:25;-1.00;99.90
18103;DHT22;9178;51.120;6.192;2022-12-18T15:57:08;-1.00;99.90
18103;DHT22;9178;51.120;6.192;2022-12-18T15:59:51;-1.00;99.90
18103;DHT22;9178;51.120;6.192;2022-12-18T16:02:19;-1.00;99.90
18103;DHT22;9178;51.120;6.192;2022-12-18T16:04:48;-1.00;99.90
18103;DHT22;9178;51.120;6.192;2022-12-18T16:07:16;-1.10;99.90